This is the latest recevied weather packets stored in our database for station/object KQ4PPF. If no packets are shown the sender has not sent any weather packets the latest 10 day(s).
| Time | Temp. | Humidity | Pressure | Rain* | Wind** | Luminosity | Snow |
|---|---|---|---|---|---|---|---|
| 1777813911 | 10.56° C | 79% | 1021.7 hPa | 0 mm | - | 47 W/m² | - |
| 1777813609 | 10° C | 81% | 1021.8 hPa | 0 mm | - | 52 W/m² | - |
| 1777813306 | 10° C | 83% | 1021.4 hPa | 0 mm | - | 49 W/m² | - |
| 1777813003 | 10° C | 82% | 1021.5 hPa | 0 mm | - | 67 W/m² | - |
| 1777812701 | 10° C | 81% | 1021.7 hPa | 0 mm | - | 102 W/m² | - |
| 1777812397 | 9.44° C | 82% | 1021.7 hPa | 0 mm | - | 117 W/m² | - |
| 1777812096 | 10° C | 82% | 1021.5 hPa | 0 mm | - | 51 W/m² | - |
| 1777811794 | 10° C | 84% | 1021.5 hPa | 0 mm | - | 43 W/m² | - |
| 1777811491 | 9.44° C | 83% | 1021.5 hPa | 0 mm | - | 38 W/m² | - |
| 1777811187 | 9.44° C | 83% | 1021.5 hPa | 0 mm | - | 38 W/m² | - |
| 1777810884 | 10° C | 82% | 1021.7 hPa | 0 mm | - | 36 W/m² | - |
| 1777810580 | 11.11° C | 78% | 1021.6 hPa | 0 mm | - | 52 W/m² | - |
| 1777810278 | 11.11° C | 78% | 1021.5 hPa | 0 mm | - | 59 W/m² | - |
| 1777809968 | 10.56° C | 82% | 1021.5 hPa | 0 mm | - | 54 W/m² | - |
| 1777809666 | 8.89° C | 89% | 1021.6 hPa | 0 mm | - | 49 W/m² | - |
| 1777809364 | 8.33° C | 98% | 1021.3 hPa | 0 mm | - | 43 W/m² | - |
| 1777809061 | 8.33° C | 99% | 1021.4 hPa | 0 mm | - | 37 W/m² | - |
| 1777808759 | 7.22° C | 99% | 1021.3 hPa | 0 mm | - | 35 W/m² | - |
| 1777808455 | 5.56° C | 99% | 1021.2 hPa | 0 mm | - | 30 W/m² | - |
| 1777808153 | 5° C | 99% | 1021.4 hPa | 0 mm | - | 21 W/m² | - |
| 1777807851 | 5° C | 99% | 1021.2 hPa | 0 mm | - | 18 W/m² | - |
| 1777807549 | 5° C | 99% | 1021 hPa | 0 mm | - | 16 W/m² | - |
| 1777807245 | 4.44° C | 99% | 1021 hPa | 0 mm | - | 13 W/m² | - |
| 1777806942 | 4.44° C | 99% | 1021.2 hPa | 0 mm | - | 10 W/m² | - |
| 1777806638 | 4.44° C | 99% | 1021 hPa | 0 mm | - | 8 W/m² | - |
* Rain latest hour (hover to see other rain measurements)
** Current wind speed in m/s (hover to see current wind gust speed)